Time;durP1;ratioP1;P1;durP2;ratioP2;P2;SDS_P1;SDS_P2;PMS_P1;PMS_P2;Temp;Humidity;BMP_temperature;BMP_pressure;BME280_temperature;BME280_humidity;BME280_pressure;Samples;Min_cycle;Max_cycle;Signal;HPM_P1;HPM_P2
2021/05/19 00:01:59;;;;;;;3.03;2.73;;;13.80;99.90;;;;;;5089055;28;20221;-64
2021/05/19 00:04:26;;;;;;;2.57;2.37;;;13.80;99.90;;;;;;5068926;28;20236;-64
2021/05/19 00:06:52;;;;;;;2.43;2.23;;;13.70;99.90;;;;;;5088426;28;20226;-62
2021/05/19 00:09:20;;;;;;;2.47;2.27;;;13.70;99.90;;;;;;5088956;28;20232;-63
2021/05/19 00:11:48;;;;;;;2.30;2.10;;;13.70;99.90;;;;;;5088529;28;20285;-62
2021/05/19 00:14:18;;;;;;;3.27;2.57;;;13.70;99.90;;;;;;5087833;28;20194;-62
2021/05/19 00:16:49;;;;;;;3.40;2.53;;;13.70;99.90;;;;;;5087814;28;20193;-63
2021/05/19 00:19:16;;;;;;;3.80;2.63;;;13.70;99.90;;;;;;5082197;28;20202;-61
2021/05/19 00:21:43;;;;;;;5.27;2.80;;;13.60;99.90;;;;;;5086639;28;20281;-62
2021/05/19 00:24:10;;;;;;;2.77;2.50;;;13.60;99.90;;;;;;5088106;28;20208;-63
2021/05/19 00:26:38;;;;;;;3.20;2.60;;;13.60;99.90;;;;;;5087963;28;20217;-62
2021/05/19 00:29:08;;;;;;;2.90;2.60;;;13.60;99.90;;;;;;5069734;28;20216;-63
2021/05/19 00:31:35;;;;;;;4.67;3.07;;;13.60;99.90;;;;;;5088910;28;20209;-63
2021/05/19 00:34:02;;;;;;;3.47;2.70;;;13.60;99.90;;;;;;5086524;28;20263;-63
2021/05/19 00:36:28;;;;;;;4.47;3.60;;;13.60;99.90;;;;;;5087813;28;20808;-63
2021/05/19 00:38:57;;;;;;;3.00;2.70;;;13.50;99.90;;;;;;5088576;28;20707;-62
2021/05/19 00:41:24;;;;;;;3.30;3.00;;;13.50;99.90;;;;;;5088722;28;20241;-63
2021/05/19 00:43:52;;;;;;;3.33;2.90;;;13.50;99.90;;;;;;5087737;28;20552;-63
2021/05/19 00:46:18;;;;;;;4.53;3.40;;;13.50;99.90;;;;;;5088227;28;20218;-62
2021/05/19 00:48:45;;;;;;;2.80;2.60;;;13.50;99.90;;;;;;5086600;28;20214;-63
2021/05/19 00:51:12;;;;;;;3.53;3.23;;;13.50;99.90;;;;;;5084521;28;20202;-63
2021/05/19 00:53:40;;;;;;;5.00;3.27;;;13.50;99.90;;;;;;5086833;28;20674;-63
2021/05/19 00:56:06;;;;;;;5.27;3.67;;;13.40;99.90;;;;;;5088081;28;20226;-63
2021/05/19 00:58:34;;;;;;;7.33;4.97;;;13.40;99.90;;;;;;5069958;28;20296;-63
2021/05/19 01:01:02;;;;;;;6.93;4.60;;;13.40;99.90;;;;;;5093465;28;20193;-62
2021/05/19 01:03:44;;;;;;;7.07;4.10;;;13.40;99.90;;;;;;5088884;28;20224;-63
2021/05/19 01:06:23;;;;;;;8.17;4.20;;;13.40;99.90;;;;;;5081738;28;20249;-63
2021/05/19 01:11:34;;;;;;;4.27;3.10;;;13.40;99.90;;;;;;5092052;28;20242;-63
2021/05/19 01:14:01;;;;;;;3.50;3.20;;;13.40;99.90;;;;;;5092185;28;20202;-63
2021/05/19 01:16:29;;;;;;;4.40;3.77;;;13.40;99.90;;;;;;5092339;28;20196;-63
2021/05/19 01:18:55;;;;;;;6.47;4.07;;;13.40;99.90;;;;;;5087754;28;20978;-63
2021/05/19 01:21:23;;;;;;;3.07;2.57;;;13.30;99.90;;;;;;5090545;28;20204;-63
2021/05/19 01:23:52;;;;;;;3.73;2.80;;;13.40;99.90;;;;;;5088617;28;20524;-63
2021/05/19 01:26:18;;;;;;;4.70;3.43;;;13.30;99.90;;;;;;5085214;28;20217;-63
2021/05/19 01:28:45;;;;;;;4.17;3.60;;;13.40;99.90;;;;;;5091486;28;20680;-63
2021/05/19 01:31:15;;;;;;;4.57;3.70;;;13.40;99.90;;;;;;5071535;28;20627;-63
2021/05/19 01:33:42;;;;;;;5.30;3.67;;;13.30;99.90;;;;;;5089811;28;20556;-64
2021/05/19 01:36:09;;;;;;;3.30;3.00;;;13.30;99.90;;;;;;5091305;28;20616;-63
2021/05/19 01:38:36;;;;;;;6.00;3.10;;;13.30;99.90;;;;;;5095016;28;20208;-63
2021/05/19 01:41:04;;;;;;;3.30;2.80;;;13.30;99.90;;;;;;5091157;28;20347;-63
2021/05/19 01:43:34;;;;;;;3.33;3.00;;;13.30;99.90;;;;;;5073247;28;20207;-63
2021/05/19 01:46:08;;;;;;;2.60;2.40;;;13.30;99.90;;;;;;5080070;28;20283;-63
2021/05/19 01:48:36;;;;;;;3.97;3.00;;;13.30;99.90;;;;;;5090237;28;20197;-62
2021/05/19 01:51:04;;;;;;;3.03;2.77;;;13.30;99.90;;;;;;5091369;28;20196;-63
2021/05/19 01:53:33;;;;;;;3.77;2.80;;;13.30;99.90;;;;;;5091447;28;20196;-63
2021/05/19 01:56:02;;;;;;;2.97;2.43;;;13.30;99.90;;;;;;5092675;28;20208;-63
2021/05/19 01:58:34;;;;;;;2.47;2.27;;;13.20;99.90;;;;;;5072631;28;20208;-64
2021/05/19 02:01:05;;;;;;;3.20;2.60;;;13.20;99.90;;;;;;5091337;28;20209;-65
2021/05/19 02:03:32;;;;;;;2.50;2.30;;;13.20;99.90;;;;;;5090427;28;20252;-63
2021/05/19 02:06:08;;;;;;;3.87;2.90;;;13.10;99.90;;;;;;5082051;28;20196;-63
2021/05/19 02:08:35;;;;;;;2.60;2.40;;;13.20;99.90;;;;;;5090540;28;20225;-64
2021/05/19 02:11:03;;;;;;;3.43;2.53;;;13.10;99.90;;;;;;5089838;28;20656;-63
2021/05/19 02:13:37;;;;;;;2.97;2.67;;;13.10;99.90;;;;;;5072814;28;20351;-63
2021/05/19 02:16:06;;;;;;;3.67;2.00;;;13.10;99.90;;;;;;5072408;28;20262;-63
2021/05/19 02:18:34;;;;;;;2.23;2.10;;;13.10;99.90;;;;;;5074740;28;20303;-63
2021/05/19 02:21:03;;;;;;;3.57;2.03;;;13.10;99.90;;;;;;5071720;28;20197;-63
2021/05/19 02:23:32;;;;;;;2.50;2.30;;;13.10;99.90;;;;;;5075808;28;20757;-63
2021/05/19 02:25:58;;;;;;;3.17;2.37;;;13.00;99.90;;;;;;5090557;28;20627;-63
2021/05/19 02:28:25;;;;;;;2.00;1.83;;;13.00;99.90;;;;;;5090343;28;20278;-63
2021/05/19 02:30:54;;;;;;;2.07;1.90;;;13.00;99.90;;;;;;5073830;28;20227;-63
2021/05/19 02:33:24;;;;;;;2.40;2.20;;;13.00;99.90;;;;;;5089691;28;20196;-63
2021/05/19 02:35:53;;;;;;;2.93;2.60;;;12.90;99.90;;;;;;5070998;28;20259;-62
2021/05/19 02:38:20;;;;;;;1.97;1.87;;;12.90;99.90;;;;;;5090332;28;20207;-63
2021/05/19 02:40:47;;;;;;;2.13;1.97;;;12.90;99.90;;;;;;5080051;28;20313;-62
2021/05/19 02:43:15;;;;;;;2.30;2.10;;;12.90;99.90;;;;;;5090921;28;20203;-63
2021/05/19 02:45:41;;;;;;;2.10;1.90;;;12.90;99.90;;;;;;5089756;28;20303;-62
2021/05/19 02:48:09;;;;;;;2.97;2.10;;;12.90;99.90;;;;;;5087460;28;20592;-62
2021/05/19 02:50:35;;;;;;;3.43;2.30;;;12.90;99.90;;;;;;5088275;28;20189;-63
2021/05/19 02:53:02;;;;;;;2.07;1.97;;;12.90;99.90;;;;;;5090799;28;20275;-63
2021/05/19 02:55:31;;;;;;;2.50;2.30;;;12.90;99.90;;;;;;5080270;28;20227;-63
2021/05/19 02:57:57;;;;;;;2.10;1.90;;;12.90;99.90;;;;;;5097528;28;20194;-63
2021/05/19 03:00:24;;;;;;;2.63;2.43;;;12.90;99.90;;;;;;5090438;28;20281;-63
2021/05/19 03:02:51;;;;;;;2.20;2.00;;;12.80;99.90;;;;;;5089914;28;20743;-63
2021/05/19 03:05:18;;;;;;;4.37;2.40;;;12.80;99.90;;;;;;5086025;28;20692;-63
2021/05/19 03:07:45;;;;;;;2.50;2.30;;;12.80;99.90;;;;;;5088203;28;20216;-62
2021/05/19 03:10:12;;;;;;;3.13;2.20;;;12.70;99.90;;;;;;5090468;28;20196;-64
2021/05/19 03:12:38;;;;;;;2.70;2.50;;;12.70;99.90;;;;;;5089490;28;20736;-62
2021/05/19 03:15:06;;;;;;;2.90;2.00;;;12.70;99.90;;;;;;5087961;28;20705;-62
2021/05/19 03:17:33;;;;;;;2.67;2.30;;;12.70;99.90;;;;;;5088876;28;20778;-62
2021/05/19 03:19:59;;;;;;;2.37;2.17;;;12.70;99.90;;;;;;5083252;28;20275;-63
2021/05/19 03:22:26;;;;;;;3.13;2.37;;;12.70;99.90;;;;;;5082305;28;20193;-63
2021/05/19 03:24:53;;;;;;;3.77;2.73;;;12.70;99.90;;;;;;5083039;28;20202;-62
2021/05/19 03:27:19;;;;;;;3.90;2.63;;;12.70;99.90;;;;;;5088573;28;20220;-62
2021/05/19 03:29:47;;;;;;;2.50;2.30;;;12.70;99.90;;;;;;5089067;28;20604;-62
2021/05/19 03:32:13;;;;;;;4.13;3.17;;;12.70;99.90;;;;;;5089521;28;20201;-62
2021/05/19 03:34:40;;;;;;;3.17;2.83;;;12.70;99.90;;;;;;5087736;28;20551;-62
2021/05/19 03:37:06;;;;;;;3.00;2.80;;;12.60;99.90;;;;;;5088587;28;20192;-62
2021/05/19 03:39:34;;;;;;;5.23;3.37;;;12.60;99.90;;;;;;5089089;28;20192;-63
2021/05/19 03:42:00;;;;;;;2.77;2.57;;;12.70;99.90;;;;;;5089055;28;20678;-63
2021/05/19 03:44:27;;;;;;;3.20;2.60;;;12.70;99.90;;;;;;5087136;28;20280;-63
2021/05/19 03:46:54;;;;;;;2.80;2.60;;;12.70;99.90;;;;;;5072331;28;20217;-63
2021/05/19 03:49:21;;;;;;;2.73;2.30;;;12.80;99.90;;;;;;5087310;28;20191;-63
2021/05/19 03:51:48;;;;;;;2.43;2.23;;;12.80;99.90;;;;;;5089379;28;20306;-63
2021/05/19 03:54:15;;;;;;;2.20;2.00;;;12.90;99.90;;;;;;5089090;28;20199;-63
2021/05/19 03:56:43;;;;;;;3.53;2.90;;;13.00;99.90;;;;;;5088709;28;20597;-63
2021/05/19 03:59:09;;;;;;;3.77;3.03;;;13.00;99.90;;;;;;5088332;28;20280;-63
2021/05/19 04:01:36;;;;;;;4.80;2.97;;;13.10;99.90;;;;;;5089905;28;20595;-62
2021/05/19 04:04:03;;;;;;;7.00;3.90;;;13.10;99.90;;;;;;5087602;28;20193;-63
2021/05/19 04:06:29;;;;;;;3.60;3.30;;;13.10;99.90;;;;;;5070466;28;20208;-63
2021/05/19 04:08:57;;;;;;;5.67;3.00;;;13.10;99.90;;;;;;5088333;28;20197;-63
2021/05/19 04:11:24;;;;;;;3.43;3.13;;;13.20;99.90;;;;;;5089073;28;20660;-63
2021/05/19 04:13:52;;;;;;;2.90;2.70;;;13.30;99.90;;;;;;5088686;28;20198;-62
2021/05/19 04:16:18;;;;;;;4.43;3.37;;;13.40;99.90;;;;;;5089229;28;20198;-63
2021/05/19 04:18:44;;;;;;;3.43;3.13;;;13.40;99.90;;;;;;5085462;28;20279;-63
2021/05/19 04:21:11;;;;;;;3.07;2.77;;;13.50;99.90;;;;;;5082510;28;20287;-63
2021/05/19 04:23:37;;;;;;;3.00;2.80;;;13.60;99.90;;;;;;5084769;28;20201;-63
2021/05/19 04:26:04;;;;;;;2.40;2.20;;;13.60;99.90;;;;;;5088653;28;20686;-63
2021/05/19 04:28:30;;;;;;;2.73;2.50;;;13.70;99.90;;;;;;5088224;28;20213;-63
2021/05/19 04:30:57;;;;;;;2.43;2.23;;;13.80;99.90;;;;;;5088551;28;20688;-63
2021/05/19 04:33:24;;;;;;;3.03;2.70;;;13.90;99.90;;;;;;5088050;28;20263;-63
2021/05/19 04:35:50;;;;;;;2.93;2.10;;;13.90;99.90;;;;;;5079667;28;20204;-63
2021/05/19 04:38:17;;;;;;;3.80;2.83;;;13.90;99.90;;;;;;5085102;28;20575;-64
2021/05/19 04:40:45;;;;;;;2.60;2.23;;;13.90;99.90;;;;;;5092177;28;20280;-62
2021/05/19 04:43:12;;;;;;;3.10;2.80;;;14.00;99.90;;;;;;5093103;28;20278;-63
2021/05/19 04:45:39;;;;;;;2.87;2.60;;;14.00;99.90;;;;;;5092206;28;20703;-63
2021/05/19 04:48:07;;;;;;;3.33;3.00;;;14.10;99.90;;;;;;5091942;28;20217;-62
2021/05/19 04:50:34;;;;;;;5.30;2.70;;;14.10;99.90;;;;;;5090648;28;20196;-62
2021/05/19 04:53:01;;;;;;;3.97;3.57;;;14.20;99.90;;;;;;5092967;28;20280;-63
2021/05/19 04:55:28;;;;;;;3.30;3.00;;;14.20;99.90;;;;;;5092593;28;20198;-64
2021/05/19 04:57:55;;;;;;;3.23;2.93;;;14.30;99.90;;;;;;5074106;28;20727;-64
2021/05/19 05:00:21;;;;;;;3.33;3.03;;;14.30;99.90;;;;;;5091970;28;20572;-63
2021/05/19 05:02:48;;;;;;;2.50;2.30;;;14.40;99.90;;;;;;5092192;28;20281;-62
2021/05/19 05:05:15;;;;;;;5.53;2.77;;;14.50;99.90;;;;;;5089335;28;20191;-63
2021/05/19 05:07:42;;;;;;;2.77;2.57;;;14.70;99.90;;;;;;5089340;28;20687;-63
2021/05/19 05:10:11;;;;;;;3.70;3.30;;;14.80;99.90;;;;;;5092452;28;20309;-63
2021/05/19 05:12:38;;;;;;;2.60;2.40;;;14.90;99.90;;;;;;5092229;28;20670;-63
2021/05/19 05:15:07;;;;;;;3.20;3.00;;;15.00;99.90;;;;;;5092345;28;20221;-63
2021/05/19 05:17:33;;;;;;;3.37;2.40;;;15.00;99.90;;;;;;5091842;28;20211;-63
2021/05/19 05:20:00;;;;;;;3.77;2.90;;;15.10;99.90;;;;;;5083300;28;20273;-64
2021/05/19 05:22:28;;;;;;;2.60;2.40;;;15.20;99.90;;;;;;5091200;28;20210;-63
2021/05/19 05:24:54;;;;;;;4.03;3.27;;;15.30;99.90;;;;;;5081672;28;20199;-63
2021/05/19 05:27:20;;;;;;;3.23;2.93;;;15.40;99.90;;;;;;5090757;28;20546;-63
2021/05/19 05:29:47;;;;;;;2.43;2.23;;;15.40;99.90;;;;;;5091478;28;20300;-63
2021/05/19 05:32:14;;;;;;;2.40;2.30;;;15.50;99.90;;;;;;5091963;28;20237;-63
2021/05/19 05:34:40;;;;;;;4.80;3.10;;;15.70;99.90;;;;;;5090592;28;20303;-62
2021/05/19 05:37:07;;;;;;;3.73;3.10;;;15.90;99.90;;;;;;5090958;28;20575;-62
2021/05/19 05:39:34;;;;;;;3.93;2.50;;;16.00;99.90;;;;;;5091095;28;20191;-63
2021/05/19 05:42:00;;;;;;;3.00;2.80;;;16.10;99.90;;;;;;5091749;28;20641;-63
2021/05/19 05:44:27;;;;;;;3.40;3.10;;;16.20;99.90;;;;;;5088217;28;20276;-62
2021/05/19 05:46:53;;;;;;;3.17;2.50;;;16.20;99.90;;;;;;5085759;28;20663;-63
2021/05/19 05:49:20;;;;;;;2.93;2.50;;;16.30;99.90;;;;;;5089548;28;20283;-62
2021/05/19 05:51:46;;;;;;;2.50;2.30;;;16.40;99.90;;;;;;5090824;28;20196;-63
2021/05/19 05:54:13;;;;;;;2.63;2.43;;;16.50;99.90;;;;;;5091517;28;20231;-62
2021/05/19 05:56:41;;;;;;;2.60;2.40;;;16.70;99.90;;;;;;5091064;28;20242;-64
2021/05/19 05:59:07;;;;;;;3.23;2.70;;;17.50;99.90;;;;;;5090693;28;20203;-64
2021/05/19 06:01:34;;;;;;;2.23;2.03;;;18.70;99.90;;;;;;5091173;28;20246;-64
2021/05/19 06:04:01;;;;;;;2.67;2.37;;;19.90;99.90;;;;;;5090116;28;20235;-64
2021/05/19 06:06:28;;;;;;;2.40;2.20;;;21.20;99.90;;;;;;5072723;28;20197;-64
2021/05/19 06:08:54;;;;;;;2.38;2.20;;;22.20;99.90;;;;;;5089801;28;20202;-63
2021/05/19 06:11:21;;;;;;;3.75;2.45;;;23.00;97.20;;;;;;5074330;28;20502;-64
2021/05/19 06:13:48;;;;;;;2.22;1.98;;;24.00;94.40;;;;;;5081637;28;20209;-64
2021/05/19 06:16:14;;;;;;;2.30;2.10;;;24.90;91.80;;;;;;5076781;28;20720;-64
2021/05/19 06:18:41;;;;;;;2.03;1.85;;;26.00;83.20;;;;;;5066134;28;20193;-63
2021/05/19 06:21:07;;;;;;;4.32;2.20;;;27.00;77.70;;;;;;5068685;28;20201;-65
2021/05/19 06:23:34;;;;;;;1.88;1.77;;;28.00;70.70;;;;;;5073158;28;20197;-66
2021/05/19 06:26:00;;;;;;;2.03;1.80;;;28.80;65.90;;;;;;5073797;28;21088;-66
2021/05/19 06:28:27;;;;;;;3.78;2.05;;;29.90;61.00;;;;;;5085367;28;20598;-65
2021/05/19 06:30:56;;;;;;;2.08;1.88;;;30.50;55.60;;;;;;5073588;28;20193;-65
2021/05/19 06:33:22;;;;;;;1.65;1.50;;;31.00;54.40;;;;;;5056747;28;20221;-66
2021/05/19 06:35:49;;;;;;;1.92;1.35;;;31.90;53.70;;;;;;5074084;28;20193;-66
2021/05/19 06:38:16;;;;;;;1.58;1.40;;;33.10;52.00;;;;;;5078689;28;20248;-64
2021/05/19 06:40:42;;;;;;;1.35;1.27;;;34.50;50.40;;;;;;5075037;28;20199;-64
2021/05/19 06:43:09;;;;;;;1.20;1.20;;;36.00;48.50;;;;;;5076739;28;20272;-64
2021/05/19 06:45:36;;;;;;;1.50;1.40;;;37.30;45.70;;;;;;5059205;28;20201;-65
2021/05/19 06:48:04;;;;;;;1.80;1.60;;;38.40;43.30;;;;;;5076870;28;20213;-64
2021/05/19 06:50:31;;;;;;;1.80;1.70;;;39.20;40.90;;;;;;5070648;28;20846;-65
2021/05/19 06:52:57;;;;;;;1.95;1.50;;;40.00;39.10;;;;;;5081122;28;20205;-65
2021/05/19 06:55:24;;;;;;;2.83;1.95;;;40.80;37.20;;;;;;5072560;28;20672;-66
2021/05/19 06:57:51;;;;;;;1.83;1.73;;;41.20;35.20;;;;;;5070383;28;20198;-65
2021/05/19 07:00:19;;;;;;;2.35;2.20;;;41.20;33.50;;;;;;5066233;28;20196;-66
2021/05/19 07:02:46;;;;;;;1.80;1.70;;;41.30;32.80;;;;;;5073178;28;20563;-66
2021/05/19 07:05:13;;;;;;;2.00;1.83;;;41.40;32.80;;;;;;5079334;28;20275;-66
2021/05/19 07:07:41;;;;;;;1.70;1.60;;;41.60;32.50;;;;;;5075438;28;20219;-66
2021/05/19 07:10:09;;;;;;;1.60;1.50;;;41.70;32.10;;;;;;5075351;28;20197;-66
2021/05/19 07:12:36;;;;;;;1.75;1.65;;;42.10;31.40;;;;;;5082030;28;20196;-66
2021/05/19 07:15:04;;;;;;;1.83;1.73;;;42.70;30.70;;;;;;5075599;28;20315;-65
2021/05/19 07:17:30;;;;;;;1.63;1.52;;;43.20;30.10;;;;;;5062107;28;20199;-65
2021/05/19 07:19:56;;;;;;;1.58;1.55;;;43.60;29.60;;;;;;5074274;28;20210;-65
2021/05/19 07:22:26;;;;;;;2.20;1.88;;;43.80;29.20;;;;;;5077055;28;20279;-65
2021/05/19 07:24:53;;;;;;;1.63;1.58;;;43.70;28.30;;;;;;5070822;28;20514;-65
2021/05/19 07:27:20;;;;;;;1.75;1.65;;;42.60;28.60;;;;;;5067457;28;20219;-65
2021/05/19 07:29:46;;;;;;;1.50;1.40;;;40.80;29.50;;;;;;5070086;28;20620;-65
2021/05/19 07:32:13;;;;;;;2.22;1.50;;;39.00;30.30;;;;;;5078979;28;20291;-65
2021/05/19 07:34:39;;;;;;;1.73;1.63;;;37.20;31.20;;;;;;5072454;28;20197;-64
2021/05/19 07:37:06;;;;;;;1.55;1.45;;;35.50;32.20;;;;;;5075978;28;20219;-65
2021/05/19 07:39:33;;;;;;;1.42;1.40;;;34.00;33.10;;;;;;5073260;28;20197;-64
2021/05/19 07:42:00;;;;;;;1.60;1.50;;;32.80;34.30;;;;;;5074571;28;20285;-65
2021/05/19 07:44:26;;;;;;;2.13;2.03;;;31.80;34.70;;;;;;5076694;28;20204;-65
2021/05/19 07:46:53;;;;;;;2.13;1.90;;;30.90;36.00;;;;;;5066509;28;20201;-65
2021/05/19 07:49:19;;;;;;;2.75;1.50;;;30.40;36.50;;;;;;5072984;28;20204;-66
2021/05/19 07:51:46;;;;;;;1.48;1.48;;;29.90;37.30;;;;;;5073773;28;20276;-65
2021/05/19 07:54:17;;;;;;;2.00;1.33;;;29.50;37.80;;;;;;5072980;28;20205;-65
2021/05/19 07:56:52;;;;;;;2.08;1.38;;;29.20;38.10;;;;;;5059716;28;20211;-65
2021/05/19 07:59:22;;;;;;;1.20;1.13;;;29.00;38.60;;;;;;5075212;28;20189;-65
2021/05/19 08:04:29;;;;;;;2.90;1.40;;;28.70;38.50;;;;;;5055005;28;20284;-65
2021/05/19 08:06:56;;;;;;;1.15;1.10;;;28.30;38.50;;;;;;5078640;28;20205;-65
2021/05/19 08:09:23;;;;;;;2.47;1.35;;;27.90;39.00;;;;;;5067378;28;20208;-65
2021/05/19 08:11:50;;;;;;;3.08;1.10;;;27.80;39.90;;;;;;5075762;28;20288;-65
2021/05/19 08:14:17;;;;;;;1.55;0.90;;;27.80;40.20;;;;;;5075520;28;20204;-65
2021/05/19 08:16:44;;;;;;;1.17;1.15;;;27.90;40.30;;;;;;5062212;28;20209;-65
2021/05/19 08:19:10;;;;;;;1.10;0.98;;;28.00;40.50;;;;;;5071727;28;20215;-65
2021/05/19 08:21:37;;;;;;;1.48;1.38;;;28.20;40.50;;;;;;5057158;28;20281;-65
2021/05/19 08:24:05;;;;;;;1.20;1.20;;;28.10;39.50;;;;;;5052263;28;20589;-65
2021/05/19 08:26:31;;;;;;;2.70;1.20;;;27.90;40.00;;;;;;5074302;28;20193;-65
2021/05/19 08:28:59;;;;;;;1.20;1.20;;;27.90;40.50;;;;;;5080561;28;20290;-65
2021/05/19 08:31:26;;;;;;;1.50;1.40;;;27.90;41.60;;;;;;5076775;28;20202;-65
2021/05/19 08:33:52;;;;;;;1.00;1.00;;;28.00;40.80;;;;;;5077017;28;20200;-65
2021/05/19 08:36:19;;;;;;;1.08;1.08;;;28.10;40.90;;;;;;5069101;28;20204;-66
2021/05/19 08:38:45;;;;;;;1.00;1.00;;;28.20;40.90;;;;;;5074020;28;20287;-66
2021/05/19 08:41:12;;;;;;;1.58;1.08;;;28.20;40.80;;;;;;5073665;28;20255;-66
2021/05/19 08:43:38;;;;;;;1.40;1.30;;;28.30;40.80;;;;;;5073809;28;20287;-66
2021/05/19 08:46:07;;;;;;;1.20;1.20;;;28.30;40.70;;;;;;5073774;28;20228;-65
2021/05/19 08:48:34;;;;;;;1.65;1.50;;;28.40;40.70;;;;;;5068819;28;20804;-65
2021/05/19 08:51:02;;;;;;;1.50;1.40;;;28.30;40.50;;;;;;5063723;28;20211;-65
2021/05/19 08:53:29;;;;;;;1.33;1.23;;;28.20;40.50;;;;;;5079941;28;20191;-64
2021/05/19 08:55:55;;;;;;;1.73;1.63;;;28.00;40.50;;;;;;5073293;28;20208;-65
2021/05/19 08:58:22;;;;;;;2.60;1.60;;;27.80;40.40;;;;;;5076419;28;20193;-65
2021/05/19 09:00:49;;;;;;;1.55;1.45;;;28.00;40.60;;;;;;5081652;28;20528;-63
2021/05/19 09:03:17;;;;;;;1.58;1.33;;;28.70;40.30;;;;;;5075722;28;20197;-63
2021/05/19 09:05:45;;;;;;;1.92;1.30;;;29.60;39.40;;;;;;5071160;28;20189;-63
2021/05/19 09:08:15;;;;;;;2.15;1.40;;;30.60;38.50;;;;;;5077003;28;20298;-63
2021/05/19 09:10:43;;;;;;;1.77;1.33;;;31.00;37.40;;;;;;5077037;28;20261;-63
2021/05/19 09:13:30;;;;;;;1.27;1.17;;;31.00;37.20;;;;;;5075623;28;20216;-63
2021/05/19 09:15:57;;;;;;;1.58;1.42;;;30.70;37.40;;;;;;5082117;28;20437;-63
2021/05/19 09:18:24;;;;;;;3.65;1.50;;;30.10;37.00;;;;;;5074571;28;20216;-64
2021/05/19 09:20:52;;;;;;;1.40;1.30;;;29.40;37.30;;;;;;5069763;28;20391;-64
2021/05/19 09:23:21;;;;;;;1.63;1.52;;;28.80;38.00;;;;;;5076977;28;20322;-64
2021/05/19 09:26:04;;;;;;;1.50;1.40;;;28.40;38.60;;;;;;5079740;28;20204;-64
2021/05/19 09:28:31;;;;;;;1.13;1.13;;;28.00;39.00;;;;;;5071442;28;20640;-64
2021/05/19 09:30:58;;;;;;;0.90;0.90;;;27.90;39.30;;;;;;5083932;28;20192;-64
2021/05/19 09:33:27;;;;;;;2.65;1.20;;;27.80;39.60;;;;;;5076911;28;20272;-64
2021/05/19 09:36:12;;;;;;;1.20;1.20;;;27.70;39.60;;;;;;5070037;28;20193;-64
2021/05/19 09:38:39;;;;;;;1.23;1.15;;;27.60;39.70;;;;;;5076042;28;20536;-64
2021/05/19 09:41:18;;;;;;;1.02;1.02;;;27.40;40.10;;;;;;5080766;28;20649;-63
2021/05/19 09:43:45;;;;;;;1.10;1.10;;;27.30;40.40;;;;;;5076290;28;20181;-64
2021/05/19 09:46:18;;;;;;;1.80;1.13;;;27.20;40.70;;;;;;5074153;28;20368;-64
2021/05/19 09:48:46;;;;;;;1.13;1.10;;;27.10;41.10;;;;;;5074144;28;20250;-64
2021/05/19 09:51:26;;;;;;;1.08;1.00;;;26.90;41.20;;;;;;5083487;28;20224;-64
2021/05/19 09:53:52;;;;;;;1.20;1.20;;;26.70;41.60;;;;;;5069172;28;20372;-64
2021/05/19 09:56:19;;;;;;;1.20;1.10;;;26.80;41.40;;;;;;5078944;28;20209;-64
2021/05/19 09:58:46;;;;;;;1.40;1.25;;;27.40;41.20;;;;;;5083461;28;20614;-64
2021/05/19 10:01:13;;;;;;;1.10;1.00;;;28.10;40.60;;;;;;5078060;28;20648;-64
2021/05/19 10:03:39;;;;;;;3.22;1.13;;;28.50;40.60;;;;;;5070856;28;20786;-64
2021/05/19 10:06:12;;;;;;;1.55;1.15;;;28.90;39.60;;;;;;5080775;28;20287;-64
2021/05/19 10:08:39;;;;;;;2.40;1.48;;;29.30;39.30;;;;;;5074587;28;20209;-64
2021/05/19 10:11:05;;;;;;;1.33;1.17;;;29.80;38.60;;;;;;5069799;28;20258;-63
2021/05/19 10:13:33;;;;;;;1.40;1.30;;;30.30;38.10;;;;;;5068959;28;20295;-63
2021/05/19 10:16:02;;;;;;;1.38;1.17;;;30.80;37.50;;;;;;5078203;28;20197;-63
2021/05/19 10:18:31;;;;;;;1.33;1.23;;;31.20;37.20;;;;;;5069837;28;20189;-64
2021/05/19 10:21:01;;;;;;;1.20;1.20;;;31.50;36.60;;;;;;5075514;28;20229;-64
2021/05/19 10:23:36;;;;;;;1.45;1.10;;;31.90;36.00;;;;;;5065780;28;20307;-64
2021/05/19 10:26:10;;;;;;;1.48;1.38;;;32.40;35.90;;;;;;5063845;28;20224;-64
2021/05/19 10:28:42;;;;;;;1.20;1.20;;;32.20;35.60;;;;;;5078025;28;20693;-64
2021/05/19 10:31:29;;;;;;;0.98;0.98;;;31.40;36.50;;;;;;5074984;28;20250;-64
2021/05/19 10:33:57;;;;;;;1.20;1.10;;;30.90;36.70;;;;;;5065157;28;20285;-65
2021/05/19 10:36:41;;;;;;;1.40;1.40;;;30.90;36.50;;;;;;5077634;28;20587;-64
2021/05/19 10:39:27;;;;;;;1.70;1.60;;;31.10;36.20;;;;;;5080521;28;20201;-64
2021/05/19 10:41:57;;;;;;;3.10;1.40;;;31.10;36.00;;;;;;5054271;28;20248;-64
2021/05/19 10:44:27;;;;;;;1.15;1.10;;;31.00;35.90;;;;;;5077913;28;20273;-63
2021/05/19 10:47:01;;;;;;;1.17;1.17;;;30.90;36.10;;;;;;5084130;28;20193;-64
2021/05/19 10:50:12;;;;;;;1.20;1.10;;;31.00;35.90;;;;;;5079164;28;20197;-64
2021/05/19 10:58:53;;;;;;;1.85;1.55;;;31.50;35.00;;;;;;4946227;28;20209;-64
2021/05/19 11:01:53;;;;;;;2.25;1.30;;;30.80;36.00;;;;;;4948997;28;20275;-64
2021/05/19 11:04:21;;;;;;;1.48;1.30;;;30.30;35.90;;;;;;4928034;29;20201;-64
2021/05/19 11:07:04;;;;;;;1.60;1.50;;;30.10;36.00;;;;;;4939124;28;20295;-63
2021/05/19 11:09:32;;;;;;;1.45;1.20;;;30.00;35.90;;;;;;4941400;28;20240;-63
2021/05/19 11:12:38;;;;;;;3.78;1.08;;;29.90;35.80;;;;;;4944248;28;20217;-64
2021/05/19 11:15:48;;;;;;;1.13;1.13;;;30.00;35.80;;;;;;4946434;28;20628;-64
2021/05/19 11:18:20;;;;;;;1.48;1.40;;;29.70;36.00;;;;;;4949252;28;20604;-64
2021/05/19 11:20:48;;;;;;;1.20;1.20;;;29.30;36.70;;;;;;4943009;28;20217;-63
2021/05/19 11:23:16;;;;;;;2.25;1.17;;;28.90;37.00;;;;;;4949034;28;20213;-64
2021/05/19 11:25:44;;;;;;;1.25;1.15;;;28.40;37.10;;;;;;4949444;28;20654;-63
2021/05/19 11:28:11;;;;;;;1.13;1.13;;;28.00;37.40;;;;;;4946096;28;20224;-63
2021/05/19 11:30:37;;;;;;;1.05;1.05;;;27.70;37.80;;;;;;5069486;28;20707;-64
2021/05/19 11:33:08;;;;;;;1.13;1.00;;;27.50;38.20;;;;;;5072595;28;20204;-64
2021/05/19 11:35:35;;;;;;;2.10;1.70;;;27.40;38.30;;;;;;5070689;28;20284;-64
2021/05/19 11:38:03;;;;;;;1.65;1.55;;;27.20;38.50;;;;;;5078838;28;20730;-63
2021/05/19 11:40:41;;;;;;;22.90;5.00;;;26.80;38.80;;;;;;5078132;28;20199;-64
2021/05/19 11:43:09;;;;;;;3.15;1.95;;;26.40;39.30;;;;;;5069995;28;20207;-65
2021/05/19 11:45:35;;;;;;;9.32;2.53;;;26.00;39.60;;;;;;5070550;28;20966;-64
2021/05/19 11:48:02;;;;;;;2.58;1.45;;;25.60;40.10;;;;;;5072676;28;20303;-64
2021/05/19 11:50:32;;;;;;;1.50;1.40;;;25.30;40.60;;;;;;5075554;28;20212;-64
2021/05/19 11:53:00;;;;;;;1.10;1.10;;;24.90;41.10;;;;;;5071357;28;20254;-64
2021/05/19 11:55:36;;;;;;;1.40;1.30;;;24.70;41.40;;;;;;5070750;28;20221;-65
2021/05/19 11:58:17;;;;;;;1.10;1.00;;;24.70;41.80;;;;;;5072578;28;20193;-63
2021/05/19 12:00:50;;;;;;;1.10;1.10;;;24.70;42.00;;;;;;5076728;28;20536;-64
2021/05/19 12:03:20;;;;;;;2.15;1.40;;;24.90;42.20;;;;;;5066929;28;20242;-64
2021/05/19 12:05:53;;;;;;;1.33;1.20;;;25.20;42.20;;;;;;5067595;28;20209;-64
2021/05/19 12:08:21;;;;;;;1.55;1.45;;;25.20;42.10;;;;;;5082073;28;20220;-64
2021/05/19 12:11:01;;;;;;;1.42;1.33;;;25.10;41.90;;;;;;5073014;28;20200;-64
2021/05/19 12:13:28;;;;;;;1.65;1.55;;;25.00;42.70;;;;;;5057770;28;20216;-64
2021/05/19 12:15:56;;;;;;;1.20;1.10;;;24.90;42.00;;;;;;5068034;28;20223;-65
2021/05/19 12:18:23;;;;;;;1.23;1.20;;;24.80;42.10;;;;;;5084524;28;20283;-65
2021/05/19 12:20:51;;;;;;;1.00;1.00;;;24.70;42.40;;;;;;5072221;28;20296;-64
2021/05/19 12:23:18;;;;;;;1.45;1.35;;;24.70;43.10;;;;;;5073601;28;20612;-65
2021/05/19 12:25:46;;;;;;;1.75;1.52;;;24.70;42.40;;;;;;5073666;28;20283;-64
2021/05/19 12:28:20;;;;;;;1.77;1.23;;;24.60;42.50;;;;;;5078053;28;20229;-64
2021/05/19 12:30:48;;;;;;;2.40;2.20;;;24.50;42.30;;;;;;5079388;28;20201;-64
2021/05/19 12:33:17;;;;;;;2.05;1.88;;;24.60;42.60;;;;;;5053828;28;20928;-64
2021/05/19 12:35:46;;;;;;;1.60;1.50;;;24.50;42.50;;;;;;5067785;28;20305;-64
2021/05/19 12:38:16;;;;;;;1.75;1.65;;;24.40;42.60;;;;;;5074617;28;20202;-64
2021/05/19 12:40:45;;;;;;;1.63;1.20;;;24.20;42.70;;;;;;5070386;28;20208;-64
2021/05/19 12:43:22;;;;;;;1.30;1.25;;;23.90;42.80;;;;;;5071821;28;20251;-64
2021/05/19 12:45:51;;;;;;;1.48;1.00;;;23.60;43.00;;;;;;5083327;28;20188;-65
2021/05/19 12:48:20;;;;;;;1.20;1.10;;;23.40;43.20;;;;;;5069120;28;20221;-64
2021/05/19 12:50:48;;;;;;;2.13;1.02;;;23.30;43.60;;;;;;5076092;28;20201;-64
2021/05/19 12:53:30;;;;;;;1.15;1.10;;;23.40;43.90;;;;;;5056135;28;20200;-65
2021/05/19 12:56:05;;;;;;;2.30;1.38;;;23.50;44.00;;;;;;5071089;28;20205;-65
2021/05/19 12:58:47;;;;;;;9.07;2.85;;;23.70;43.80;;;;;;5067390;28;20196;-65
2021/05/19 13:01:14;;;;;;;8.95;2.08;;;23.80;43.70;;;;;;5065825;28;20205;-65
2021/05/19 13:03:41;;;;;;;13.05;1.90;;;23.80;43.60;;;;;;5074498;28;20392;-65
2021/05/19 13:06:08;;;;;;;8.60;2.38;;;23.80;43.60;;;;;;5071651;28;20652;-64
2021/05/19 13:08:36;;;;;;;2.70;1.60;;;23.90;43.90;;;;;;5075044;28;20559;-64